Time;durP1;ratioP1;P1;durP2;ratioP2;P2;SDS_P1;SDS_P2;PMS_P1;PMS_P2;Temp;Humidity;BMP_temperature;BMP_pressure;BME280_temperature;BME280_humidity;BME280_pressure;Samples;Min_cycle;Max_cycle;Signal;HPM_P1;HPM_P2
2022/03/09 00:00:24;;;;;;;6.90;5.20;;;;;;;-1.39;74.72;99056.95;25115;1313;3026427;-69
2022/03/09 00:02:53;;;;;;;11.50;6.10;;;;;;;-1.62;75.78;99057.54;25124;1313;3049353;-70
2022/03/09 00:05:22;;;;;;;6.00;4.40;;;;;;;-1.81;76.82;99052.54;25071;1313;3026869;-65
2022/03/09 00:07:52;;;;;;;7.90;4.70;;;;;;;-1.21;75.98;99049.71;25104;1313;3057926;-68
2022/03/09 00:10:21;;;;;;;7.50;4.40;;;;;;;-0.63;73.72;99044.77;25079;1313;3026210;-63
2022/03/09 00:12:57;;;;;;;9.30;5.60;;;;;;;-0.48;72.43;99045.64;25109;1313;3054940;-69
2022/03/09 00:15:26;;;;;;;7.20;4.80;;;;;;;-0.86;73.02;99049.90;25072;1313;3027342;-65
2022/03/09 00:17:56;;;;;;;7.50;5.50;;;;;;;-1.00;73.58;99044.51;25179;1313;3054261;-64
2022/03/09 00:20:28;;;;;;;7.40;5.30;;;;;;;-1.14;73.89;99044.27;25084;1313;3028848;-68
2022/03/09 00:22:57;;;;;;;8.70;5.80;;;;;;;-1.57;75.52;99047.82;25110;1313;3028510;-64
2022/03/09 00:25:26;;;;;;;8.90;5.40;;;;;;;-1.51;75.41;99047.72;25067;1313;3026443;-65
2022/03/09 00:27:57;;;;;;;12.60;6.30;;;;;;;-1.74;76.06;99043.66;25112;1313;3055233;-67
2022/03/09 00:30:26;;;;;;;11.80;7.40;;;;;;;-1.66;75.97;99042.14;25178;1313;3026194;-64
2022/03/09 00:32:55;;;;;;;11.80;6.50;;;;;;;-1.73;76.29;99041.41;25508;1313;3026848;-63
2022/03/09 00:35:26;;;;;;;8.40;5.90;;;;;;;-1.07;75.26;99043.95;25552;1313;3026525;-58
2022/03/09 00:37:56;;;;;;;10.20;5.70;;;;;;;-0.38;72.83;99036.98;25201;1313;3026011;-65
2022/03/09 00:40:25;;;;;;;12.00;6.30;;;;;;;-0.19;71.55;99040.16;25116;1313;3026500;-70
2022/03/09 00:42:57;;;;;;;9.00;6.00;;;;;;;-0.53;71.65;99045.58;25114;1313;3053204;-70
2022/03/09 00:45:26;;;;;;;9.40;5.90;;;;;;;-0.73;72.47;99044.81;25089;1313;3027283;-69
2022/03/09 00:47:56;;;;;;;10.30;6.20;;;;;;;-0.97;72.86;99048.40;25096;1313;3026069;-66
2022/03/09 00:50:24;;;;;;;8.80;6.10;;;;;;;-1.24;73.67;99046.18;25086;1313;3026945;-72
2022/03/09 00:52:54;;;;;;;10.60;6.00;;;;;;;-1.36;74.13;99044.52;25068;1312;3053196;-67
2022/03/09 00:55:23;;;;;;;10.10;6.80;;;;;;;-1.47;74.05;99047.47;25105;1313;3027930;-67
2022/03/09 00:57:52;;;;;;;11.30;7.30;;;;;;;-1.75;75.43;99048.48;25060;1313;3029189;-67
2022/03/09 01:00:22;;;;;;;11.00;6.40;;;;;;;-1.70;75.57;99046.84;25175;1313;3053116;-68
2022/03/09 01:02:51;;;;;;;9.40;5.70;;;;;;;-1.92;76.56;99046.88;25251;1313;3028613;-63
2022/03/09 01:05:20;;;;;;;10.00;6.70;;;;;;;-1.38;75.41;99049.02;25088;1313;3026864;-62
2022/03/09 01:07:50;;;;;;;11.20;7.00;;;;;;;-0.84;73.35;99046.59;25158;1313;3053697;-69
2022/03/09 01:10:19;;;;;;;10.30;6.90;;;;;;;-0.82;72.62;99045.35;25131;1312;3028995;-71
2022/03/09 01:12:50;;;;;;;13.40;7.60;;;;;;;-1.09;73.05;99045.36;25175;1313;3053746;-63
2022/03/09 01:15:20;;;;;;;12.90;7.50;;;;;;;-1.27;73.58;99048.65;25271;1313;3027078;-65
2022/03/09 01:17:49;;;;;;;14.50;8.20;;;;;;;-1.47;74.18;99045.58;25151;1313;3026926;-71
2022/03/09 01:20:18;;;;;;;11.90;8.20;;;;;;;-1.61;74.53;99046.00;25090;1312;3029110;-71
2022/03/09 01:22:47;;;;;;;14.50;7.80;;;;;;;-1.82;75.19;99046.88;25145;1312;3051141;-69
2022/03/09 01:25:17;;;;;;;13.60;8.60;;;;;;;-2.01;75.65;99047.86;25139;1313;3026580;-70
2022/03/09 01:27:46;;;;;;;14.50;8.60;;;;;;;-2.25;76.30;99052.02;25130;1316;3052628;-64
2022/03/09 01:30:15;;;;;;;10.60;6.40;;;;;;;-2.25;76.59;99049.98;25130;1316;3027024;-70
2022/03/09 01:32:46;;;;;;;13.40;7.90;;;;;;;-1.89;75.97;99048.20;25125;1315;3026274;-73
2022/03/09 01:35:15;;;;;;;12.00;7.10;;;;;;;-1.25;73.60;99048.43;25047;1316;3029674;-62
2022/03/09 01:37:46;;;;;;;12.70;8.10;;;;;;;-1.33;73.16;99044.80;25045;1315;3027245;-65
2022/03/09 01:40:15;;;;;;;10.60;6.40;;;;;;;-1.46;73.23;99047.80;25082;1316;3029154;-71
2022/03/09 01:42:45;;;;;;;12.70;8.20;;;;;;;-1.52;73.11;99051.16;25065;1316;3027140;-65
2022/03/09 01:45:14;;;;;;;13.30;8.40;;;;;;;-1.70;73.81;99049.94;25098;1315;3027802;-68
2022/03/09 01:47:43;;;;;;;11.70;8.50;;;;;;;-1.87;74.08;99052.29;25074;1316;3054510;-63
2022/03/09 01:50:12;;;;;;;13.70;8.40;;;;;;;-1.86;73.98;99051.09;25038;1316;3030545;-66
2022/03/09 01:52:43;;;;;;;13.10;8.80;;;;;;;-2.18;75.07;99062.55;25103;1316;3027101;-65
2022/03/09 01:55:12;;;;;;;13.40;9.10;;;;;;;-2.19;75.72;99058.63;25095;1316;3051462;-64
2022/03/09 01:57:41;;;;;;;16.00;9.30;;;;;;;-2.28;75.94;99063.05;25120;1316;3027683;-69
2022/03/09 02:00:13;;;;;;;14.40;8.20;;;;;;;-2.39;76.79;99057.91;25156;1316;3026205;-68
2022/03/09 02:02:44;;;;;;;14.70;8.90;;;;;;;-1.71;75.56;99056.13;25068;1316;3026906;-67
2022/03/09 02:05:15;;;;;;;13.00;7.90;;;;;;;-1.13;73.26;99053.35;25156;1315;3027262;-74
2022/03/09 02:10:41;;;;;;;16.10;9.10;;;;;;;-1.19;72.81;99058.12;25058;1316;3053025;-72
2022/03/09 02:13:22;;;;;;;12.90;8.10;;;;;;;-1.62;74.28;99059.95;25101;1316;3053151;-67
2022/03/09 02:15:51;;;;;;;13.50;8.10;;;;;;;-1.92;74.91;99063.52;25121;1315;3026181;-60
2022/03/09 02:18:20;;;;;;;17.00;10.90;;;;;;;-2.10;75.85;99061.40;25053;1316;3051307;-70
2022/03/09 02:20:50;;;;;;;17.20;9.70;;;;;;;-2.17;76.71;99066.52;25116;1315;3028844;-65
2022/03/09 02:23:20;;;;;;;17.70;10.70;;;;;;;-2.36;77.42;99064.72;25103;1315;3026872;-64
2022/03/09 02:25:50;;;;;;;13.20;7.80;;;;;;;-2.35;77.58;99062.46;25105;1316;3026521;-62
2022/03/09 02:28:19;;;;;;;17.30;10.60;;;;;;;-1.93;77.02;99057.02;25115;1316;3027419;-65
2022/03/09 02:30:54;;;;;;;15.40;9.80;;;;;;;-1.11;74.64;99052.98;25058;1316;3026709;-66
2022/03/09 02:33:23;;;;;;;17.50;10.30;;;;;;;-0.95;73.12;99051.44;25120;1316;3051121;-68
2022/03/09 02:35:53;;;;;;;15.20;9.70;;;;;;;-1.17;73.06;99056.70;25084;1316;3026714;-74
2022/03/09 02:38:22;;;;;;;19.00;10.80;;;;;;;-1.50;73.84;99059.05;25051;1316;3026906;-72
2022/03/09 02:40:52;;;;;;;19.20;11.60;;;;;;;-1.49;74.13;99054.89;25048;1316;3026137;-67
2022/03/09 02:43:23;;;;;;;17.90;11.00;;;;;;;-1.51;74.21;99056.30;25115;1316;3029588;-70
2022/03/09 02:45:52;;;;;;;20.10;11.60;;;;;;;-1.65;73.93;99058.10;25045;1315;3026916;-69
2022/03/09 02:48:22;;;;;;;20.90;12.40;;;;;;;-1.82;74.26;99064.23;25107;1316;3026505;-65
2022/03/09 02:50:50;;;;;;;19.90;11.60;;;;;;;-1.96;75.02;99063.25;25071;1316;3051398;-72
2022/03/09 02:53:21;;;;;;;19.20;10.30;;;;;;;-2.08;75.69;99066.19;25045;1316;3026869;-69
2022/03/09 02:55:51;;;;;;;19.10;10.50;;;;;;;-2.11;75.71;99073.61;25124;1316;3027293;-72
2022/03/09 02:58:22;;;;;;;16.30;10.30;;;;;;;-1.67;74.73;99068.09;25133;1316;3026208;-65
2022/03/09 03:00:51;;;;;;;15.20;9.60;;;;;;;-1.20;73.41;99065.02;25063;1316;3026443;-66
2022/03/09 03:03:21;;;;;;;15.90;9.80;;;;;;;-1.03;72.04;99068.98;25091;1315;3050791;-65
2022/03/09 03:05:52;;;;;;;18.90;11.60;;;;;;;-1.20;72.11;99071.02;25104;1316;3029312;-63
2022/03/09 03:08:21;;;;;;;18.40;11.60;;;;;;;-1.33;72.51;99066.64;25152;1316;3026659;-69
2022/03/09 03:10:52;;;;;;;23.00;13.50;;;;;;;-1.44;72.55;99067.02;25087;1316;3026724;-71
2022/03/09 03:13:22;;;;;;;20.90;12.30;;;;;;;-1.51;72.72;99070.56;25061;1316;3027159;-65
2022/03/09 03:15:54;;;;;;;18.90;12.50;;;;;;;-1.78;73.22;99070.86;25106;1316;3026697;-70
2022/03/09 03:18:23;;;;;;;19.90;12.80;;;;;;;-1.94;74.04;99068.70;25106;1316;3026412;-67
2022/03/09 03:20:54;;;;;;;19.90;12.10;;;;;;;-1.89;74.14;99068.12;25099;1316;3026374;-66
2022/03/09 03:23:25;;;;;;;21.10;13.50;;;;;;;-2.14;74.52;99070.90;25054;1313;3051564;-64
2022/03/09 03:25:54;;;;;;;23.80;13.40;;;;;;;-2.15;74.86;99072.30;25084;1315;3026592;-71
2022/03/09 03:28:23;;;;;;;18.80;10.40;;;;;;;-2.29;75.18;99067.70;25092;1316;3027019;-65
2022/03/09 03:30:52;;;;;;;19.00;11.70;;;;;;;-1.80;74.38;99061.95;25075;1316;3054845;-70
2022/03/09 03:33:22;;;;;;;21.00;11.80;;;;;;;-1.20;72.08;99060.03;25114;1316;3026457;-66
2022/03/09 03:35:50;;;;;;;19.00;11.00;;;;;;;-1.27;71.48;99059.63;25058;1316;3049081;-70
2022/03/09 03:38:20;;;;;;;18.40;11.90;;;;;;;-1.66;71.97;99057.43;25082;1316;3026098;-69
2022/03/09 03:40:50;;;;;;;21.40;13.00;;;;;;;-1.90;73.28;99058.00;25091;1314;3026652;-71
2022/03/09 03:43:19;;;;;;;27.60;13.70;;;;;;;-1.97;73.29;99056.56;25115;1316;3026603;-67
2022/03/09 03:45:49;;;;;;;22.60;13.60;;;;;;;-2.04;73.41;99053.94;25082;1316;3026775;-65
2022/03/09 03:48:18;;;;;;;20.10;12.70;;;;;;;-2.07;73.94;99051.75;25126;1316;3051248;-69
2022/03/09 03:50:49;;;;;;;18.70;11.90;;;;;;;-2.14;74.31;99052.04;25107;1315;3030056;-65
2022/03/09 03:53:19;;;;;;;24.30;13.90;;;;;;;-2.21;74.55;99048.54;25108;1316;3027049;-61
2022/03/09 03:55:48;;;;;;;20.40;12.70;;;;;;;-2.28;74.68;99046.92;25099;1315;3026563;-66
2022/03/09 03:58:18;;;;;;;23.40;13.80;;;;;;;-2.44;74.61;99048.52;25086;1316;3028038;-64
2022/03/09 04:00:48;;;;;;;18.60;9.80;;;;;;;-2.42;74.86;99046.80;25165;1316;3026088;-69
2022/03/09 04:03:17;;;;;;;20.30;11.50;;;;;;;-2.11;74.59;99051.30;25109;1316;3028646;-71
2022/03/09 04:05:46;;;;;;;20.10;11.60;;;;;;;-1.61;72.82;99047.39;25058;1316;3026625;-72
2022/03/09 04:08:15;;;;;;;19.70;12.30;;;;;;;-1.67;72.19;99049.36;25123;1315;3028447;-69
2022/03/09 04:10:47;;;;;;;20.90;11.70;;;;;;;-1.89;72.85;99049.04;25075;1316;3051561;-74
2022/03/09 04:13:16;;;;;;;21.10;12.40;;;;;;;-2.06;73.10;99045.03;25096;1316;3026412;-66
2022/03/09 04:15:45;;;;;;;20.70;12.00;;;;;;;-2.14;73.39;99049.98;25108;1316;3026540;-64
2022/03/09 04:18:14;;;;;;;20.60;12.70;;;;;;;-2.23;73.40;99056.45;25172;1316;3052722;-60
2022/03/09 04:20:44;;;;;;;19.90;12.60;;;;;;;-2.54;74.24;99055.71;25610;1316;3029586;-62
2022/03/09 04:23:13;;;;;;;18.30;12.00;;;;;;;-2.46;74.18;99052.17;25513;1316;3026546;-58
2022/03/09 04:25:42;;;;;;;23.70;13.50;;;;;;;-2.55;74.34;99056.08;25298;1316;3049026;-67
2022/03/09 04:28:12;;;;;;;24.30;12.60;;;;;;;-2.65;75.03;99062.20;25142;1315;3026676;-65
2022/03/09 04:30:46;;;;;;;20.20;11.20;;;;;;;-2.67;74.46;99059.99;25145;1316;3054234;-66
2022/03/09 04:33:16;;;;;;;17.30;9.30;;;;;;;-2.85;75.38;99063.66;25142;1315;3027644;-66
2022/03/09 04:35:55;;;;;;;18.70;11.30;;;;;;;-2.34;74.75;99062.63;25035;1313;3052430;-68
2022/03/09 04:38:24;;;;;;;21.90;11.30;;;;;;;-1.89;72.46;99055.06;25062;1313;3026297;-72
2022/03/09 04:40:53;;;;;;;20.60;12.20;;;;;;;-1.71;71.68;99051.67;25116;1313;3026417;-69
2022/03/09 04:43:22;;;;;;;21.40;12.50;;;;;;;-1.79;71.55;99057.98;25027;1312;3051322;-67
2022/03/09 04:45:53;;;;;;;22.20;11.40;;;;;;;-1.97;71.85;99061.20;25099;1316;3026419;-70
2022/03/09 04:48:20;;;;;;;22.20;11.40;;;;;;;-2.17;72.54;99061.00;23567;1312;8850288;-68
2022/03/09 04:50:50;;;;;;;29.80;20.00;;;;;;;-2.25;72.72;99064.04;25083;1316;3054336;-67
2022/03/09 04:53:19;;;;;;;22.80;14.00;;;;;;;-2.26;73.11;99066.79;25088;1313;3028258;-70
2022/03/09 04:55:48;;;;;;;25.30;14.30;;;;;;;-2.53;73.51;99069.41;25120;1313;3048054;-66
2022/03/09 04:58:17;;;;;;;24.40;14.40;;;;;;;-2.67;74.41;99075.94;25124;1313;3026329;-64
2022/03/09 05:00:48;;;;;;;23.50;13.00;;;;;;;-2.64;74.41;99073.51;25060;1313;3070791;-69
2022/03/09 05:03:17;;;;;;;23.00;12.90;;;;;;;-2.80;74.52;99080.23;25168;1316;3028227;-68
2022/03/09 05:05:47;;;;;;;17.80;9.90;;;;;;;-2.97;75.46;99088.48;25075;1313;3050604;-65
2022/03/09 05:08:16;;;;;;;19.10;11.40;;;;;;;-2.28;74.14;99081.07;25078;1312;3027414;-71
2022/03/09 05:10:45;;;;;;;20.40;10.90;;;;;;;-1.75;71.55;99080.07;25115;1316;3026822;-68
2022/03/09 05:13:14;;;;;;;19.60;11.80;;;;;;;-1.77;70.79;99082.17;25144;1312;3050283;-68
2022/03/09 05:15:44;;;;;;;16.80;10.40;;;;;;;-1.81;70.96;99090.66;25094;1315;3028576;-67
2022/03/09 05:18:13;;;;;;;20.10;12.20;;;;;;;-2.20;71.73;99091.25;25237;1313;3026285;-61
2022/03/09 05:20:42;;;;;;;25.40;13.90;;;;;;;-2.26;72.43;99091.34;25119;1312;3051087;-70
2022/03/09 05:23:12;;;;;;;19.50;11.70;;;;;;;-2.39;72.64;99098.90;25120;1313;3026355;-70
2022/03/09 05:25:41;;;;;;;22.80;11.60;;;;;;;-2.62;73.29;99101.77;25087;1313;3026798;-73
2022/03/09 05:28:11;;;;;;;19.90;11.40;;;;;;;-2.83;73.83;99108.03;25124;1313;3029379;-73
2022/03/09 05:30:41;;;;;;;24.60;13.60;;;;;;;-2.77;73.54;99109.33;25092;1313;3027100;-68
2022/03/09 05:33:10;;;;;;;23.50;13.20;;;;;;;-2.95;73.84;99112.46;25080;1312;3029151;-64
2022/03/09 05:35:40;;;;;;;20.60;13.40;;;;;;;-2.88;73.83;99114.27;25109;1313;3053946;-66
2022/03/09 05:38:09;;;;;;;21.00;12.50;;;;;;;-2.82;73.43;99115.56;25101;1315;3027160;-67
2022/03/09 05:40:41;;;;;;;24.80;13.90;;;;;;;-3.00;73.74;99116.64;25104;1313;3027329;-66
2022/03/09 05:43:10;;;;;;;15.90;8.80;;;;;;;-2.99;74.09;99116.79;25145;1313;3028820;-70
2022/03/09 05:45:41;;;;;;;18.60;11.50;;;;;;;-2.50;72.68;99117.73;25093;1315;3028287;-63
2022/03/09 05:48:12;;;;;;;15.20;10.50;;;;;;;-2.07;69.83;99116.80;25104;1312;3026623;-68
2022/03/09 05:50:42;;;;;;;19.10;10.50;;;;;;;-1.95;68.90;99117.15;25098;1312;3026542;-69
2022/03/09 05:53:11;;;;;;;18.20;11.50;;;;;;;-2.14;68.85;99120.67;25077;1312;3026524;-70
2022/03/09 05:55:39;;;;;;;17.50;11.80;;;;;;;-2.35;69.54;99123.04;25125;1316;3050468;-66
2022/03/09 05:58:08;;;;;;;19.10;11.20;;;;;;;-2.30;69.60;99127.41;25086;1313;3026848;-62
2022/03/09 06:00:38;;;;;;;20.00;11.90;;;;;;;-2.57;70.03;99127.60;25073;1312;3056058;-70
2022/03/09 06:03:07;;;;;;;21.30;11.90;;;;;;;-2.48;69.77;99127.48;25091;1312;3029240;-67
2022/03/09 06:05:37;;;;;;;21.80;11.70;;;;;;;-2.63;70.10;99132.83;25089;1313;3052352;-67
2022/03/09 06:10:42;;;;;;;24.90;14.80;;;;;;;-2.52;70.34;99134.23;31421;1319;3026628;-70
2022/03/09 06:13:13;;;;;;;30.30;20.20;;;;;;;-2.31;70.00;99130.88;24918;1319;3026009;-71
2022/03/09 06:15:42;;;;;;;25.00;15.30;;;;;;;-2.14;69.09;99128.91;24973;1319;3026426;-68
2022/03/09 06:18:11;;;;;;;23.60;13.50;;;;;;;-2.25;69.42;99129.08;25008;1319;3026850;-72
2022/03/09 06:20:43;;;;;;;20.30;12.10;;;;;;;-2.22;69.38;99124.23;25007;1319;3054610;-72
2022/03/09 06:23:10;;;;;;;20.30;12.10;;;;;;;-2.23;69.11;99124.24;22394;1317;10376312;-72
2022/03/09 06:25:39;;;;;;;25.40;19.30;;;;;;;-2.14;68.58;99122.22;25012;1316;3055275;-65
2022/03/09 06:28:08;;;;;;;22.80;14.90;;;;;;;-1.91;67.39;99119.30;25094;1316;3027057;-73
2022/03/09 06:30:40;;;;;;;22.90;13.70;;;;;;;-2.28;68.57;99121.38;25145;1316;3050994;-70
2022/03/09 06:33:10;;;;;;;22.00;13.20;;;;;;;-2.20;68.40;99119.73;25115;1316;3026682;-74
2022/03/09 06:35:39;;;;;;;17.30;11.40;;;;;;;-2.40;68.61;99128.23;25145;1316;3026954;-67
2022/03/09 06:38:08;;;;;;;19.00;11.60;;;;;;;-2.62;69.71;99128.70;25071;1316;3026595;-75
2022/03/09 06:40:37;;;;;;;18.10;11.70;;;;;;;-2.72;69.75;99132.08;25149;1316;3051979;-64
2022/03/09 06:43:06;;;;;;;17.40;11.00;;;;;;;-2.77;69.78;99133.34;25302;1316;3026870;-69
2022/03/09 06:45:35;;;;;;;18.20;10.90;;;;;;;-2.78;69.88;99134.36;25087;1313;3051993;-68
2022/03/09 06:48:04;;;;;;;18.10;12.00;;;;;;;-2.72;69.63;99127.44;25252;1313;3026605;-62
2022/03/09 06:50:35;;;;;;;18.60;12.20;;;;;;;-2.59;69.50;99129.88;25280;1313;3055452;-71
2022/03/09 06:53:05;;;;;;;22.80;13.10;;;;;;;-2.73;69.73;99133.13;25090;1313;3026390;-70
2022/03/09 06:55:36;;;;;;;23.00;12.60;;;;;;;-2.72;70.10;99134.46;25262;1313;3027535;-68
2022/03/09 06:58:05;;;;;;;25.40;14.40;;;;;;;-2.59;70.15;99138.95;25206;1317;3027487;-65
2022/03/09 07:00:36;;;;;;;21.00;13.30;;;;;;;-2.51;69.92;99136.12;25085;1313;3030115;-70
2022/03/09 07:03:05;;;;;;;22.70;13.20;;;;;;;-2.59;69.85;99142.39;25126;1313;3052355;-68
2022/03/09 07:05:36;;;;;;;17.30;11.20;;;;;;;-2.79;69.96;99141.41;25136;1313;3026537;-70
2022/03/09 07:08:05;;;;;;;21.70;13.00;;;;;;;-2.93;70.34;99142.95;25075;1313;3026972;-68
2022/03/09 07:10:34;;;;;;;22.70;13.40;;;;;;;-2.85;70.18;99136.17;25048;1313;3029795;-68
2022/03/09 07:13:04;;;;;;;21.50;11.30;;;;;;;-2.84;70.01;99139.25;25077;1312;3028818;-75
2022/03/09 07:15:33;;;;;;;20.40;12.10;;;;;;;-2.92;69.81;99136.77;25133;1313;3026963;-65
2022/03/09 07:18:02;;;;;;;22.00;12.50;;;;;;;-2.87;69.49;99140.48;25057;1313;3048716;-69
2022/03/09 07:20:32;;;;;;;18.00;10.80;;;;;;;-2.83;69.33;99137.70;25131;1313;3026123;-64
2022/03/09 07:23:02;;;;;;;19.70;12.10;;;;;;;-2.73;68.76;99135.86;25136;1313;3027398;-66
2022/03/09 07:25:34;;;;;;;20.50;12.40;;;;;;;-2.48;68.31;99136.06;25125;1313;3027427;-67
2022/03/09 07:28:03;;;;;;;20.50;12.50;;;;;;;-2.21;67.82;99129.88;25062;1317;3026545;-68
2022/03/09 07:30:33;;;;;;;20.90;12.60;;;;;;;-2.20;67.37;99128.48;25118;1314;3027917;-65
2022/03/09 07:33:02;;;;;;;20.10;12.40;;;;;;;-2.12;67.44;99131.80;25107;1314;3026149;-67
2022/03/09 07:35:31;;;;;;;21.40;12.20;;;;;;;-2.08;67.24;99128.49;25091;1315;3026341;-69
2022/03/09 07:38:01;;;;;;;20.70;13.20;;;;;;;-2.09;67.22;99127.83;25057;1313;3055342;-67
2022/03/09 07:40:30;;;;;;;22.30;12.60;;;;;;;-2.12;67.74;99128.02;25106;1316;3027680;-65
2022/03/09 07:43:00;;;;;;;17.70;11.10;;;;;;;-2.28;67.68;99131.34;25042;1313;3051463;-64
2022/03/09 07:45:29;;;;;;;20.70;12.60;;;;;;;-2.50;67.80;99138.51;25150;1313;3026858;-63
2022/03/09 07:47:59;;;;;;;21.90;11.80;;;;;;;-2.60;68.18;99138.98;25134;1313;3026493;-69
2022/03/09 07:50:28;;;;;;;17.70;10.80;;;;;;;-2.54;68.01;99135.64;25116;1313;3026892;-69
2022/03/09 07:52:57;;;;;;;23.00;12.50;;;;;;;-2.49;67.44;99138.32;25081;1313;3052916;-67
2022/03/09 07:55:26;;;;;;;20.00;13.00;;;;;;;-2.47;67.68;99137.77;25103;1313;3026581;-62
2022/03/09 07:57:56;;;;;;;22.50;13.20;;;;;;;-2.26;67.37;99136.46;25055;1313;3049465;-70
2022/03/09 08:00:24;;;;;;;21.50;12.40;;;;;;;-2.02;66.87;99136.29;25110;1313;3026854;-62
2022/03/09 08:02:54;;;;;;;21.20;13.20;;;;;;;-2.04;65.76;99131.17;25434;1313;3027527;-59
2022/03/09 08:05:24;;;;;;;19.20;12.00;;;;;;;-2.10;66.10;99132.64;25521;1313;3030230;-60
2022/03/09 08:07:54;;;;;;;21.60;12.90;;;;;;;-2.20;66.65;99134.14;25257;1313;3052836;-67
2022/03/09 08:10:24;;;;;;;23.80;11.20;;;;;;;-2.36;67.42;99139.34;25157;1313;3028790;-71
2022/03/09 08:12:53;;;;;;;19.40;11.50;;;;;;;-2.69;68.98;99144.22;25079;1316;3030143;-67
2022/03/09 08:15:22;;;;;;;22.20;13.00;;;;;;;-2.62;69.45;99142.77;25131;1313;3026667;-67
2022/03/09 08:17:51;;;;;;;21.80;12.60;;;;;;;-2.70;70.23;99151.27;25101;1313;3052911;-67
2022/03/09 08:20:20;;;;;;;20.40;12.80;;;;;;;-2.76;70.57;99146.36;25076;1313;3026888;-69
2022/03/09 08:22:49;;;;;;;18.20;11.00;;;;;;;-2.64;70.32;99144.33;25089;1313;3055439;-62
2022/03/09 08:25:18;;;;;;;22.90;13.20;;;;;;;-2.66;70.58;99139.20;25056;1313;3026669;-68
2022/03/09 08:27:48;;;;;;;21.30;13.00;;;;;;;-2.41;70.09;99138.39;25074;1313;3027191;-66
2022/03/09 08:30:17;;;;;;;24.00;11.20;;;;;;;-2.31;69.70;99135.67;25069;1313;3053592;-68
2022/03/09 08:32:46;;;;;;;17.60;10.60;;;;;;;-1.74;68.81;99130.20;25080;1313;3026493;-68
2022/03/09 08:35:17;;;;;;;21.90;12.10;;;;;;;-1.02;66.83;99130.34;25086;1313;3049799;-68
2022/03/09 08:37:47;;;;;;;22.40;13.10;;;;;;;-0.99;66.12;99128.05;25107;1313;3030038;-65
2022/03/09 08:40:16;;;;;;;23.00;12.00;;;;;;;-1.10;66.16;99134.95;25111;1316;3026964;-66
2022/03/09 08:42:46;;;;;;;19.70;12.20;;;;;;;-1.50;67.01;99129.80;25066;1317;3051600;-64
2022/03/09 08:45:16;;;;;;;25.20;13.50;;;;;;;-1.40;67.03;99129.47;25096;1313;3026115;-67
2022/03/09 08:47:45;;;;;;;21.30;13.00;;;;;;;-1.61;67.31;99132.39;25061;1313;3026773;-72
2022/03/09 08:50:14;;;;;;;24.80;12.70;;;;;;;-1.73;67.89;99134.30;25123;1313;3026502;-71
2022/03/09 08:52:43;;;;;;;22.40;13.80;;;;;;;-1.90;68.14;99140.91;25109;1313;3052502;-68
2022/03/09 08:55:12;;;;;;;25.90;14.90;;;;;;;-1.89;69.04;99137.98;25089;1313;3026056;-64
2022/03/09 08:57:42;;;;;;;26.20;16.00;;;;;;;-1.72;68.65;99137.56;25089;1313;3049849;-68
2022/03/09 09:00:11;;;;;;;24.20;15.10;;;;;;;-1.62;68.09;99140.66;25051;1316;3026003;-71
2022/03/09 09:02:40;;;;;;;19.90;12.10;;;;;;;-1.86;67.41;99144.64;25032;1319;3027633;-67
2022/03/09 09:05:10;;;;;;;24.70;13.80;;;;;;;-1.99;68.00;99148.43;25115;1319;3026868;-70
2022/03/09 09:07:40;;;;;;;22.50;14.60;;;;;;;-1.90;68.08;99151.94;25096;1313;3055411;-66
2022/03/09 09:10:09;;;;;;;22.90;13.30;;;;;;;-2.01;68.40;99150.69;25092;1313;3026834;-69
2022/03/09 09:12:38;;;;;;;24.70;14.50;;;;;;;-2.05;68.87;99150.93;25086;1313;3051728;-63
2022/03/09 09:15:08;;;;;;;22.10;14.50;;;;;;;-2.08;68.42;99156.46;25077;1313;3028782;-62
2022/03/09 09:17:38;;;;;;;24.40;14.20;;;;;;;-2.21;68.43;99155.80;25084;1313;3056167;-73
2022/03/09 09:20:08;;;;;;;24.70;15.60;;;;;;;-2.24;68.82;99154.63;25091;1313;3026825;-66
2022/03/09 09:22:42;;;;;;;28.30;15.80;;;;;;;-1.93;68.02;99149.55;25146;1313;3052234;-73
2022/03/09 09:25:11;;;;;;;29.60;16.10;;;;;;;-1.89;68.34;99153.62;25114;1313;3029492;-67
2022/03/09 09:27:40;;;;;;;31.10;14.70;;;;;;;-1.69;68.22;99151.24;25051;1313;3026534;-69
2022/03/09 09:30:10;;;;;;;29.80;17.00;;;;;;;-1.76;68.45;99151.19;25249;1313;3054015;-65
2022/03/09 09:32:39;;;;;;;28.40;16.20;;;;;;;-1.59;68.29;99150.58;25217;1313;3026733;-70
2022/03/09 09:35:10;;;;;;;21.80;13.90;;;;;;;-1.86;69.64;99155.98;25079;1313;3026047;-67
2022/03/09 09:37:40;;;;;;;27.70;15.10;;;;;;;-1.99;70.37;99151.70;25267;1313;3026834;-68
2022/03/09 09:40:10;;;;;;;24.90;15.20;;;;;;;-1.77;70.58;99153.94;25211;1313;3026432;-70
2022/03/09 09:42:41;;;;;;;24.60;12.80;;;;;;;-1.52;70.05;99148.05;25175;1313;3026818;-65
2022/03/09 09:45:11;;;;;;;18.30;10.40;;;;;;;-0.90;67.75;99149.88;25304;1313;3026587;-72
2022/03/09 09:47:41;;;;;;;21.80;13.90;;;;;;;-0.31;64.88;99149.38;25087;1313;3027620;-73
2022/03/09 09:50:13;;;;;;;22.00;14.90;;;;;;;-0.19;64.10;99144.83;25104;1313;3028570;-69
2022/03/09 09:52:44;;;;;;;;;;;;;;;-0.05;64.28;99146.06;25102;1313;3057253;-63
2022/03/09 09:55:13;;;;;;;24.40;15.30;;;;;;;-0.35;65.08;99152.23;25161;1313;3026469;-70
2022/03/09 09:57:42;;;;;;;22.30;14.50;;;;;;;-0.66;65.92;99149.42;25064;1312;3054212;-70
2022/03/09 10:00:12;;;;;;;23.10;15.10;;;;;;;-0.87;66.77;99148.11;25089;1313;3026650;-70
2022/03/09 10:02:42;;;;;;;23.60;14.90;;;;;;;-0.71;67.27;99146.76;25153;1313;3030037;-69
2022/03/09 10:05:14;;;;;;;28.00;15.00;;;;;;;-0.82;67.41;99148.00;25076;1313;3026432;-72
2022/03/09 10:08:03;;;;;;;25.60;15.40;;;;;;;-0.90;67.66;99146.11;25049;1313;3056211;-63
2022/03/09 10:10:43;;;;;;;24.40;15.10;;;;;;;-1.03;68.54;99147.05;25127;1313;3052569;-67
2022/03/09 10:13:15;;;;;;;26.10;16.10;;;;;;;-1.17;69.01;99150.02;25131;1316;3053356;-67
2022/03/09 10:15:45;;;;;;;28.20;14.70;;;;;;;-1.20;69.04;99146.48;25154;1313;3026963;-68
2022/03/09 10:18:19;;;;;;;25.70;15.90;;;;;;;-1.21;68.67;99149.77;25097;1313;3026543;-72
2022/03/09 10:20:49;;;;;;;28.70;17.10;;;;;;;-1.04;68.52;99145.35;25104;1313;3048915;-65
2022/03/09 10:23:21;;;;;;;22.60;14.50;;;;;;;-1.08;68.60;99152.77;25103;1313;3026725;-66
2022/03/09 10:26:01;;;;;;;23.30;14.30;;;;;;;-1.20;69.02;99152.33;25084;1313;3053894;-73
2022/03/09 10:28:31;;;;;;;27.70;16.00;;;;;;;-1.40;69.86;99147.52;25092;1313;3026143;-73
2022/03/09 10:31:00;;;;;;;25.90;15.70;;;;;;;-1.20;70.06;99145.97;25096;1313;3027226;-71
2022/03/09 10:33:29;;;;;;;28.20;17.00;;;;;;;-1.14;69.95;99148.43;25055;1313;3051501;-73
2022/03/09 10:35:58;;;;;;;23.70;15.10;;;;;;;-1.21;69.96;99146.33;25025;1313;3027207;-64
2022/03/09 10:38:27;;;;;;;27.60;15.90;;;;;;;-1.29;69.63;99148.35;25118;1313;3026784;-71
2022/03/09 10:41:00;;;;;;;28.50;17.30;;;;;;;-1.33;69.98;99149.98;25067;1313;3054202;-67
2022/03/09 10:43:30;;;;;;;29.70;17.20;;;;;;;-1.31;70.07;99149.58;25128;1313;3029152;-67
2022/03/09 10:46:11;;;;;;;32.20;17.60;;;;;;;-1.29;69.73;99151.80;25185;1313;3026541;-67
2022/03/09 10:48:48;;;;;;;26.00;15.20;;;;;;;-1.30;69.78;99152.16;25056;1313;3052359;-70
2022/03/09 10:51:27;;;;;;;28.10;17.30;;;;;;;-1.65;71.12;99159.77;25117;1313;3051655;-67
2022/03/09 10:53:56;;;;;;;22.90;15.20;;;;;;;-1.65;71.49;99153.25;25082;1313;3069078;-62
2022/03/09 10:56:25;;;;;;;28.60;17.40;;;;;;;-1.66;71.00;99156.52;25106;1313;3029440;-65
2022/03/09 10:58:54;;;;;;;29.40;15.30;;;;;;;-1.64;72.23;99157.02;25069;1313;3053982;-70
2022/03/09 11:01:26;;;;;;;25.60;15.10;;;;;;;-0.83;70.33;99151.98;25158;1313;3027064;-67
2022/03/09 11:03:56;;;;;;;25.80;15.60;;;;;;;-0.30;68.14;99157.98;25137;1313;3026390;-68
2022/03/09 11:06:26;;;;;;;24.00;14.50;;;;;;;-0.01;67.17;99154.77;25089;1313;3026194;-67
2022/03/09 11:08:56;;;;;;;24.00;15.00;;;;;;;-0.37;67.56;99157.09;25139;1313;3026714;-77
2022/03/09 11:11:25;;;;;;;27.60;16.40;;;;;;;-0.79;69.05;99158.62;25114;1313;3027852;-69
2022/03/09 11:14:06;;;;;;;24.90;15.80;;;;;;;-0.65;69.50;99157.31;25110;1313;3049975;-65
2022/03/09 11:16:37;;;;;;;26.70;15.10;;;;;;;-0.71;68.64;99155.53;25094;1313;3028671;-68
2022/03/09 11:19:06;;;;;;;19.40;12.00;;;;;;;-0.91;69.14;99155.92;25094;1313;3026478;-70
2022/03/09 11:21:36;;;;;;;24.30;15.40;;;;;;;-1.03;69.83;99155.98;25087;1313;3030246;-68